Terminal Aerodrome Forecast
Issued by NWS

Home | Current Version | Previous Version | Text Only | Print | Product List | Glossary On
Versions: 1 2 3 4 5 6 7 8 9 10 11 12 13 14 15 16 17 18 19 20 21 22 23 24 25 26 27 28 29 30 31 32
000
FTUS43 KDLH 272300
TAFHIB
TAF
KHIB 272337Z 2800/2824 16005KT P6SM BKN015
      TEMPO 2801/2805 SCT015 BKN080
     FM280500 16004KT P6SM OVC009
     FM281200 16006KT 6SM BR OVC006
     FM281600 13005KT 4SM BR OVC005=

USA.gov is the U.S. government's official web portal to all federal, state and local government web resources and services.